sensor_id;sensor_type;location;lat;lon;timestamp;P1;durP1;ratioP1;P2;durP2;ratioP2
74995;SDS011;63545;51.690;5.202;2023-11-21T00:02:12;43.60;;;17.37;;
74995;SDS011;63545;51.690;5.202;2023-11-21T00:04:38;45.67;;;17.63;;
74995;SDS011;63545;51.690;5.202;2023-11-21T00:07:03;44.35;;;17.98;;
74995;SDS011;63545;51.690;5.202;2023-11-21T00:09:28;43.90;;;18.03;;
74995;SDS011;63545;51.690;5.202;2023-11-21T00:11:54;43.87;;;17.33;;
74995;SDS011;63545;51.690;5.202;2023-11-21T00:14:19;39.53;;;17.10;;
74995;SDS011;63545;51.690;5.202;2023-11-21T00:16:45;45.05;;;17.42;;
74995;SDS011;63545;51.690;5.202;2023-11-21T00:19:11;45.73;;;17.30;;
74995;SDS011;63545;51.690;5.202;2023-11-21T00:21:37;42.72;;;17.10;;
74995;SDS011;63545;51.690;5.202;2023-11-21T00:24:02;41.57;;;17.47;;
74995;SDS011;63545;51.690;5.202;2023-11-21T00:26:28;46.10;;;17.10;;
74995;SDS011;63545;51.690;5.202;2023-11-21T00:28:53;41.20;;;17.07;;
74995;SDS011;63545;51.690;5.202;2023-11-21T00:31:19;38.80;;;16.57;;
74995;SDS011;63545;51.690;5.202;2023-11-21T00:33:44;46.20;;;16.90;;
74995;SDS011;63545;51.690;5.202;2023-11-21T00:36:09;42.70;;;17.33;;
74995;SDS011;63545;51.690;5.202;2023-11-21T00:38:38;35.88;;;16.08;;
74995;SDS011;63545;51.690;5.202;2023-11-21T00:41:06;41.97;;;16.17;;
74995;SDS011;63545;51.690;5.202;2023-11-21T00:43:31;39.22;;;16.02;;
74995;SDS011;63545;51.690;5.202;2023-11-21T00:45:58;42.38;;;17.10;;
74995;SDS011;63545;51.690;5.202;2023-11-21T00:48:24;32.10;;;14.52;;
74995;SDS011;63545;51.690;5.202;2023-11-21T00:50:49;31.57;;;14.03;;
74995;SDS011;63545;51.690;5.202;2023-11-21T00:53:15;30.35;;;13.82;;
74995;SDS011;63545;51.690;5.202;2023-11-21T00:55:40;30.53;;;13.83;;
74995;SDS011;63545;51.690;5.202;2023-11-21T00:58:06;40.27;;;16.03;;
74995;SDS011;63545;51.690;5.202;2023-11-21T01:00:32;38.22;;;15.68;;
74995;SDS011;63545;51.690;5.202;2023-11-21T01:02:58;33.45;;;15.85;;
74995;SDS011;63545;51.690;5.202;2023-11-21T01:05:23;40.53;;;15.43;;
74995;SDS011;63545;51.690;5.202;2023-11-21T01:07:49;40.87;;;15.93;;
74995;SDS011;63545;51.690;5.202;2023-11-21T01:10:15;38.42;;;16.00;;
74995;SDS011;63545;51.690;5.202;2023-11-21T01:12:42;37.33;;;15.07;;
74995;SDS011;63545;51.690;5.202;2023-11-21T01:15:07;43.80;;;15.75;;
74995;SDS011;63545;51.690;5.202;2023-11-21T01:17:33;39.37;;;15.17;;
74995;SDS011;63545;51.690;5.202;2023-11-21T01:19:59;39.05;;;15.15;;
74995;SDS011;63545;51.690;5.202;2023-11-21T01:22:25;39.00;;;14.20;;
74995;SDS011;63545;51.690;5.202;2023-11-21T01:24:51;32.27;;;14.37;;
74995;SDS011;63545;51.690;5.202;2023-11-21T01:27:18;33.28;;;14.35;;
74995;SDS011;63545;51.690;5.202;2023-11-21T01:29:43;30.83;;;12.83;;
74995;SDS011;63545;51.690;5.202;2023-11-21T01:32:09;34.13;;;14.10;;
74995;SDS011;63545;51.690;5.202;2023-11-21T01:34:34;26.93;;;13.70;;
74995;SDS011;63545;51.690;5.202;2023-11-21T01:37:00;26.67;;;12.90;;
74995;SDS011;63545;51.690;5.202;2023-11-21T01:39:26;27.35;;;12.15;;
74995;SDS011;63545;51.690;5.202;2023-11-21T01:41:52;29.47;;;13.17;;
74995;SDS011;63545;51.690;5.202;2023-11-21T01:44:17;35.72;;;13.05;;
74995;SDS011;63545;51.690;5.202;2023-11-21T01:46:44;27.98;;;12.48;;
74995;SDS011;63545;51.690;5.202;2023-11-21T01:49:11;27.10;;;11.60;;
74995;SDS011;63545;51.690;5.202;2023-11-21T01:51:38;27.65;;;11.70;;
74995;SDS011;63545;51.690;5.202;2023-11-21T01:54:04;36.88;;;11.63;;
74995;SDS011;63545;51.690;5.202;2023-11-21T01:56:31;75.30;;;10.98;;
74995;SDS011;63545;51.690;5.202;2023-11-21T01:58:57;40.50;;;10.67;;
74995;SDS011;63545;51.690;5.202;2023-11-21T02:01:22;61.43;;;10.90;;
74995;SDS011;63545;51.690;5.202;2023-11-21T02:03:48;34.75;;;10.75;;
74995;SDS011;63545;51.690;5.202;2023-11-21T02:06:13;25.80;;;10.63;;
74995;SDS011;63545;51.690;5.202;2023-11-21T02:08:38;23.10;;;10.77;;
74995;SDS011;63545;51.690;5.202;2023-11-21T02:11:04;22.17;;;10.63;;
74995;SDS011;63545;51.690;5.202;2023-11-21T02:13:30;26.05;;;10.85;;
74995;SDS011;63545;51.690;5.202;2023-11-21T02:15:56;26.17;;;11.80;;
74995;SDS011;63545;51.690;5.202;2023-11-21T02:18:21;35.22;;;13.65;;
74995;SDS011;63545;51.690;5.202;2023-11-21T02:20:47;38.23;;;14.63;;
74995;SDS011;63545;51.690;5.202;2023-11-21T02:23:12;47.40;;;15.13;;
74995;SDS011;63545;51.690;5.202;2023-11-21T02:25:38;42.17;;;14.75;;
74995;SDS011;63545;51.690;5.202;2023-11-21T02:28:03;41.42;;;14.98;;
74995;SDS011;63545;51.690;5.202;2023-11-21T02:30:29;34.90;;;14.80;;
74995;SDS011;63545;51.690;5.202;2023-11-21T02:32:57;39.22;;;15.40;;
74995;SDS011;63545;51.690;5.202;2023-11-21T02:35:23;39.13;;;15.48;;
74995;SDS011;63545;51.690;5.202;2023-11-21T02:37:51;42.53;;;16.25;;
74995;SDS011;63545;51.690;5.202;2023-11-21T02:40:16;36.00;;;15.75;;
74995;SDS011;63545;51.690;5.202;2023-11-21T02:42:43;32.00;;;14.98;;
74995;SDS011;63545;51.690;5.202;2023-11-21T02:45:12;31.05;;;14.85;;
74995;SDS011;63545;51.690;5.202;2023-11-21T02:47:42;33.53;;;15.18;;
74995;SDS011;63545;51.690;5.202;2023-11-21T02:50:08;32.47;;;14.17;;
74995;SDS011;63545;51.690;5.202;2023-11-21T02:52:34;29.52;;;14.35;;
74995;SDS011;63545;51.690;5.202;2023-11-21T02:55:00;34.58;;;15.23;;
74995;SDS011;63545;51.690;5.202;2023-11-21T02:57:26;29.08;;;14.52;;
74995;SDS011;63545;51.690;5.202;2023-11-21T02:59:51;28.98;;;14.30;;
74995;SDS011;63545;51.690;5.202;2023-11-21T03:02:17;35.47;;;14.73;;
74995;SDS011;63545;51.690;5.202;2023-11-21T03:04:42;33.97;;;15.20;;
74995;SDS011;63545;51.690;5.202;2023-11-21T03:07:08;28.17;;;13.50;;
74995;SDS011;63545;51.690;5.202;2023-11-21T03:09:34;27.10;;;13.25;;
74995;SDS011;63545;51.690;5.202;2023-11-21T03:12:00;27.33;;;13.30;;
74995;SDS011;63545;51.690;5.202;2023-11-21T03:14:25;27.90;;;13.67;;
74995;SDS011;63545;51.690;5.202;2023-11-21T03:16:50;29.27;;;13.77;;
74995;SDS011;63545;51.690;5.202;2023-11-21T03:19:16;29.67;;;13.80;;
74995;SDS011;63545;51.690;5.202;2023-11-21T03:21:42;31.93;;;14.53;;
74995;SDS011;63545;51.690;5.202;2023-11-21T03:24:07;30.33;;;14.95;;
74995;SDS011;63545;51.690;5.202;2023-11-21T03:26:33;31.30;;;14.83;;
74995;SDS011;63545;51.690;5.202;2023-11-21T03:28:58;33.83;;;15.27;;
74995;SDS011;63545;51.690;5.202;2023-11-21T03:31:23;28.43;;;14.43;;
74995;SDS011;63545;51.690;5.202;2023-11-21T03:33:49;29.93;;;14.17;;
74995;SDS011;63545;51.690;5.202;2023-11-21T03:36:14;24.97;;;13.10;;
74995;SDS011;63545;51.690;5.202;2023-11-21T03:38:40;28.73;;;13.70;;
74995;SDS011;63545;51.690;5.202;2023-11-21T03:41:06;27.88;;;13.50;;
74995;SDS011;63545;51.690;5.202;2023-11-21T03:43:32;29.30;;;14.00;;
74995;SDS011;63545;51.690;5.202;2023-11-21T03:45:57;29.10;;;14.17;;
74995;SDS011;63545;51.690;5.202;2023-11-21T03:48:22;28.17;;;13.90;;
74995;SDS011;63545;51.690;5.202;2023-11-21T03:50:48;36.80;;;15.15;;
74995;SDS011;63545;51.690;5.202;2023-11-21T03:53:13;33.20;;;14.93;;
74995;SDS011;63545;51.690;5.202;2023-11-21T03:55:39;33.37;;;14.60;;
74995;SDS011;63545;51.690;5.202;2023-11-21T03:58:04;32.03;;;14.90;;
74995;SDS011;63545;51.690;5.202;2023-11-21T04:00:29;29.30;;;13.77;;
74995;SDS011;63545;51.690;5.202;2023-11-21T04:02:55;30.57;;;13.63;;
74995;SDS011;63545;51.690;5.202;2023-11-21T04:05:20;33.40;;;14.63;;
74995;SDS011;63545;51.690;5.202;2023-11-21T04:07:49;31.67;;;14.43;;
74995;SDS011;63545;51.690;5.202;2023-11-21T04:10:15;27.75;;;13.88;;
74995;SDS011;63545;51.690;5.202;2023-11-21T04:12:41;28.80;;;14.23;;
74995;SDS011;63545;51.690;5.202;2023-11-21T04:15:06;33.97;;;15.03;;
74995;SDS011;63545;51.690;5.202;2023-11-21T04:17:33;31.15;;;14.05;;
74995;SDS011;63545;51.690;5.202;2023-11-21T04:19:59;30.35;;;14.40;;
74995;SDS011;63545;51.690;5.202;2023-11-21T04:22:24;35.07;;;14.47;;
74995;SDS011;63545;51.690;5.202;2023-11-21T04:24:50;31.13;;;14.23;;
74995;SDS011;63545;51.690;5.202;2023-11-21T04:27:15;30.53;;;14.77;;
74995;SDS011;63545;51.690;5.202;2023-11-21T04:29:43;32.05;;;15.13;;
74995;SDS011;63545;51.690;5.202;2023-11-21T04:32:09;29.75;;;14.10;;
74995;SDS011;63545;51.690;5.202;2023-11-21T04:34:34;30.13;;;14.93;;
74995;SDS011;63545;51.690;5.202;2023-11-21T04:36:59;29.20;;;14.63;;
74995;SDS011;63545;51.690;5.202;2023-11-21T04:39:25;31.90;;;14.80;;
74995;SDS011;63545;51.690;5.202;2023-11-21T04:41:51;33.80;;;15.27;;
74995;SDS011;63545;51.690;5.202;2023-11-21T04:44:16;30.03;;;14.17;;
74995;SDS011;63545;51.690;5.202;2023-11-21T04:46:42;36.90;;;15.60;;
74995;SDS011;63545;51.690;5.202;2023-11-21T04:49:07;34.17;;;15.17;;
74995;SDS011;63545;51.690;5.202;2023-11-21T04:51:33;33.57;;;14.93;;
74995;SDS011;63545;51.690;5.202;2023-11-21T04:53:58;33.15;;;15.07;;
74995;SDS011;63545;51.690;5.202;2023-11-21T04:56:24;29.60;;;14.93;;
74995;SDS011;63545;51.690;5.202;2023-11-21T04:58:49;31.80;;;14.97;;
74995;SDS011;63545;51.690;5.202;2023-11-21T05:01:15;30.50;;;15.05;;
74995;SDS011;63545;51.690;5.202;2023-11-21T05:03:40;35.80;;;14.57;;
74995;SDS011;63545;51.690;5.202;2023-11-21T05:06:06;34.77;;;15.80;;
74995;SDS011;63545;51.690;5.202;2023-11-21T05:08:31;32.23;;;16.07;;
74995;SDS011;63545;51.690;5.202;2023-11-21T05:10:57;40.40;;;15.63;;
74995;SDS011;63545;51.690;5.202;2023-11-21T05:13:22;35.43;;;15.23;;
74995;SDS011;63545;51.690;5.202;2023-11-21T05:15:52;36.08;;;16.77;;
74995;SDS011;63545;51.690;5.202;2023-11-21T05:18:18;36.72;;;16.08;;
74995;SDS011;63545;51.690;5.202;2023-11-21T05:20:43;36.87;;;16.37;;
74995;SDS011;63545;51.690;5.202;2023-11-21T05:23:08;43.20;;;16.93;;
74995;SDS011;63545;51.690;5.202;2023-11-21T05:25:34;36.90;;;16.67;;
74995;SDS011;63545;51.690;5.202;2023-11-21T05:27:59;43.10;;;18.17;;
74995;SDS011;63545;51.690;5.202;2023-11-21T05:30:26;40.63;;;17.40;;
74995;SDS011;63545;51.690;5.202;2023-11-21T05:32:52;48.20;;;18.33;;
74995;SDS011;63545;51.690;5.202;2023-11-21T05:35:17;44.03;;;17.80;;
74995;SDS011;63545;51.690;5.202;2023-11-21T05:37:42;53.57;;;19.27;;
74995;SDS011;63545;51.690;5.202;2023-11-21T05:40:08;58.00;;;18.60;;
74995;SDS011;63545;51.690;5.202;2023-11-21T05:42:35;82.57;;;19.88;;
74995;SDS011;63545;51.690;5.202;2023-11-21T05:45:00;78.50;;;19.83;;
74995;SDS011;63545;51.690;5.202;2023-11-21T05:47:45;66.50;;;19.00;;
74995;SDS011;63545;51.690;5.202;2023-11-21T05:50:11;64.33;;;19.60;;
74995;SDS011;63545;51.690;5.202;2023-11-21T05:52:39;62.67;;;19.35;;
74995;SDS011;63545;51.690;5.202;2023-11-21T05:55:05;66.05;;;19.63;;
74995;SDS011;63545;51.690;5.202;2023-11-21T05:57:32;64.05;;;19.30;;
74995;SDS011;63545;51.690;5.202;2023-11-21T06:00:02;62.17;;;19.88;;
74995;SDS011;63545;51.690;5.202;2023-11-21T06:02:36;61.13;;;18.40;;
74995;SDS011;63545;51.690;5.202;2023-11-21T06:05:06;67.32;;;21.95;;
74995;SDS011;63545;51.690;5.202;2023-11-21T06:07:32;65.38;;;19.38;;
74995;SDS011;63545;51.690;5.202;2023-11-21T06:09:57;56.60;;;19.53;;
74995;SDS011;63545;51.690;5.202;2023-11-21T06:12:22;67.60;;;19.87;;
74995;SDS011;63545;51.690;5.202;2023-11-21T06:14:48;66.13;;;19.80;;
74995;SDS011;63545;51.690;5.202;2023-11-21T06:17:13;65.38;;;19.70;;
74995;SDS011;63545;51.690;5.202;2023-11-21T06:19:39;59.40;;;20.90;;
74995;SDS011;63545;51.690;5.202;2023-11-21T06:22:05;65.72;;;20.95;;
74995;SDS011;63545;51.690;5.202;2023-11-21T06:24:31;64.53;;;19.87;;
74995;SDS011;63545;51.690;5.202;2023-11-21T06:26:56;64.30;;;19.65;;
74995;SDS011;63545;51.690;5.202;2023-11-21T06:29:22;58.23;;;19.90;;
74995;SDS011;63545;51.690;5.202;2023-11-21T06:31:47;59.33;;;20.50;;
74995;SDS011;63545;51.690;5.202;2023-11-21T06:34:12;61.60;;;20.87;;
74995;SDS011;63545;51.690;5.202;2023-11-21T06:36:38;60.53;;;20.83;;
74995;SDS011;63545;51.690;5.202;2023-11-21T06:39:04;62.73;;;20.23;;
74995;SDS011;63545;51.690;5.202;2023-11-21T06:41:32;62.50;;;20.92;;
74995;SDS011;63545;51.690;5.202;2023-11-21T06:43:58;61.60;;;20.05;;
74995;SDS011;63545;51.690;5.202;2023-11-21T06:46:24;63.33;;;20.37;;
74995;SDS011;63545;51.690;5.202;2023-11-21T06:48:49;65.83;;;20.20;;
74995;SDS011;63545;51.690;5.202;2023-11-21T06:51:15;61.78;;;20.30;;
74995;SDS011;63545;51.690;5.202;2023-11-21T06:53:40;61.30;;;19.47;;
74995;SDS011;63545;51.690;5.202;2023-11-21T06:56:14;62.63;;;18.80;;
74995;SDS011;63545;51.690;5.202;2023-11-21T06:58:41;54.83;;;19.77;;
74995;SDS011;63545;51.690;5.202;2023-11-21T07:01:06;51.73;;;19.13;;
74995;SDS011;63545;51.690;5.202;2023-11-21T07:03:32;57.00;;;17.95;;
74995;SDS011;63545;51.690;5.202;2023-11-21T07:05:57;50.53;;;18.70;;
74995;SDS011;63545;51.690;5.202;2023-11-21T07:08:22;53.87;;;18.80;;
74995;SDS011;63545;51.690;5.202;2023-11-21T07:10:48;54.10;;;18.63;;
74995;SDS011;63545;51.690;5.202;2023-11-21T07:13:14;55.42;;;18.17;;
74995;SDS011;63545;51.690;5.202;2023-11-21T07:15:39;53.77;;;18.43;;
74995;SDS011;63545;51.690;5.202;2023-11-21T07:18:05;49.20;;;18.52;;
74995;SDS011;63545;51.690;5.202;2023-11-21T07:20:32;54.20;;;18.88;;
74995;SDS011;63545;51.690;5.202;2023-11-21T07:22:58;49.77;;;18.00;;
74995;SDS011;63545;51.690;5.202;2023-11-21T07:25:24;55.20;;;19.90;;
74995;SDS011;63545;51.690;5.202;2023-11-21T07:27:50;49.23;;;18.50;;
74995;SDS011;63545;51.690;5.202;2023-11-21T07:30:15;49.13;;;18.27;;
74995;SDS011;63545;51.690;5.202;2023-11-21T07:32:41;52.80;;;17.60;;
74995;SDS011;63545;51.690;5.202;2023-11-21T07:35:06;51.20;;;16.70;;
74995;SDS011;63545;51.690;5.202;2023-11-21T07:37:33;57.95;;;18.90;;
74995;SDS011;63545;51.690;5.202;2023-11-21T07:39:58;58.50;;;17.33;;
74995;SDS011;63545;51.690;5.202;2023-11-21T07:42:24;58.97;;;17.53;;
74995;SDS011;63545;51.690;5.202;2023-11-21T07:44:51;55.63;;;16.58;;
74995;SDS011;63545;51.690;5.202;2023-11-21T07:47:17;65.35;;;18.63;;
74995;SDS011;63545;51.690;5.202;2023-11-21T07:49:42;60.27;;;18.33;;
74995;SDS011;63545;51.690;5.202;2023-11-21T07:52:09;57.28;;;18.05;;
74995;SDS011;63545;51.690;5.202;2023-11-21T07:54:34;62.00;;;17.17;;
74995;SDS011;63545;51.690;5.202;2023-11-21T07:57:00;59.90;;;17.75;;
74995;SDS011;63545;51.690;5.202;2023-11-21T07:59:26;50.25;;;15.50;;
74995;SDS011;63545;51.690;5.202;2023-11-21T08:01:51;54.00;;;15.17;;
74995;SDS011;63545;51.690;5.202;2023-11-21T08:04:17;55.33;;;15.93;;
74995;SDS011;63545;51.690;5.202;2023-11-21T08:06:43;47.92;;;14.57;;
74995;SDS011;63545;51.690;5.202;2023-11-21T08:09:08;57.47;;;16.43;;
74995;SDS011;63545;51.690;5.202;2023-11-21T08:11:34;58.80;;;16.50;;
74995;SDS011;63545;51.690;5.202;2023-11-21T08:13:59;49.90;;;16.30;;
74995;SDS011;63545;51.690;5.202;2023-11-21T08:16:25;63.53;;;17.70;;
74995;SDS011;63545;51.690;5.202;2023-11-21T08:18:50;49.33;;;14.82;;
74995;SDS011;63545;51.690;5.202;2023-11-21T08:21:16;58.40;;;17.00;;
74995;SDS011;63545;51.690;5.202;2023-11-21T08:23:41;53.17;;;15.50;;
74995;SDS011;63545;51.690;5.202;2023-11-21T08:26:07;49.92;;;16.45;;
74995;SDS011;63545;51.690;5.202;2023-11-21T08:28:33;53.27;;;16.37;;
74995;SDS011;63545;51.690;5.202;2023-11-21T08:31:00;60.25;;;17.08;;
74995;SDS011;63545;51.690;5.202;2023-11-21T08:33:26;61.33;;;16.77;;
74995;SDS011;63545;51.690;5.202;2023-11-21T08:35:51;53.67;;;16.63;;
74995;SDS011;63545;51.690;5.202;2023-11-21T08:38:16;57.63;;;17.37;;
74995;SDS011;63545;51.690;5.202;2023-11-21T08:40:42;49.03;;;16.27;;
74995;SDS011;63545;51.690;5.202;2023-11-21T08:43:08;46.72;;;16.20;;
74995;SDS011;63545;51.690;5.202;2023-11-21T08:45:33;57.10;;;16.87;;
74995;SDS011;63545;51.690;5.202;2023-11-21T08:47:59;44.30;;;14.53;;
74995;SDS011;63545;51.690;5.202;2023-11-21T08:50:25;40.42;;;13.60;;
74995;SDS011;63545;51.690;5.202;2023-11-21T08:52:50;33.00;;;13.97;;
74995;SDS011;63545;51.690;5.202;2023-11-21T08:55:16;38.83;;;14.30;;
74995;SDS011;63545;51.690;5.202;2023-11-21T08:57:43;37.23;;;13.97;;
74995;SDS011;63545;51.690;5.202;2023-11-21T09:00:09;40.17;;;14.07;;
74995;SDS011;63545;51.690;5.202;2023-11-21T09:02:44;35.92;;;13.80;;
74995;SDS011;63545;51.690;5.202;2023-11-21T09:05:10;42.80;;;14.23;;
74995;SDS011;63545;51.690;5.202;2023-11-21T09:07:36;35.63;;;13.52;;
74995;SDS011;63545;51.690;5.202;2023-11-21T09:10:03;35.38;;;14.10;;
74995;SDS011;63545;51.690;5.202;2023-11-21T09:12:29;35.90;;;13.17;;
74995;SDS011;63545;51.690;5.202;2023-11-21T09:14:54;33.97;;;13.38;;
74995;SDS011;63545;51.690;5.202;2023-11-21T09:17:19;34.80;;;13.23;;
74995;SDS011;63545;51.690;5.202;2023-11-21T09:19:45;29.60;;;12.73;;
74995;SDS011;63545;51.690;5.202;2023-11-21T09:22:14;31.05;;;12.45;;
74995;SDS011;63545;51.690;5.202;2023-11-21T09:24:40;31.73;;;12.20;;
74995;SDS011;63545;51.690;5.202;2023-11-21T09:27:05;30.60;;;11.97;;
74995;SDS011;63545;51.690;5.202;2023-11-21T09:29:31;29.00;;;12.13;;
74995;SDS011;63545;51.690;5.202;2023-11-21T09:31:56;28.65;;;12.23;;
74995;SDS011;63545;51.690;5.202;2023-11-21T09:34:24;29.90;;;12.43;;
74995;SDS011;63545;51.690;5.202;2023-11-21T09:36:50;30.60;;;12.73;;
74995;SDS011;63545;51.690;5.202;2023-11-21T09:39:16;27.17;;;12.80;;
74995;SDS011;63545;51.690;5.202;2023-11-21T09:41:43;27.23;;;11.93;;
74995;SDS011;63545;51.690;5.202;2023-11-21T09:44:13;25.77;;;11.57;;
74995;SDS011;63545;51.690;5.202;2023-11-21T09:46:42;24.30;;;11.30;;
74995;SDS011;63545;51.690;5.202;2023-11-21T09:49:09;22.23;;;11.05;;
74995;SDS011;63545;51.690;5.202;2023-11-21T09:51:39;24.85;;;11.07;;
74995;SDS011;63545;51.690;5.202;2023-11-21T09:54:05;23.20;;;11.18;;
74995;SDS011;63545;51.690;5.202;2023-11-21T09:56:33;25.30;;;11.10;;
74995;SDS011;63545;51.690;5.202;2023-11-21T09:59:00;20.15;;;10.15;;
74995;SDS011;63545;51.690;5.202;2023-11-21T10:01:31;21.55;;;10.73;;
74995;SDS011;63545;51.690;5.202;2023-11-21T10:03:57;22.75;;;10.98;;
74995;SDS011;63545;51.690;5.202;2023-11-21T10:06:22;21.70;;;10.70;;
74995;SDS011;63545;51.690;5.202;2023-11-21T10:08:50;24.75;;;11.55;;
74995;SDS011;63545;51.690;5.202;2023-11-21T10:11:16;23.33;;;11.53;;
74995;SDS011;63545;51.690;5.202;2023-11-21T10:13:43;24.65;;;11.38;;
74995;SDS011;63545;51.690;5.202;2023-11-21T10:16:10;19.08;;;10.75;;
74995;SDS011;63545;51.690;5.202;2023-11-21T10:18:41;26.00;;;10.53;;
74995;SDS011;63545;51.690;5.202;2023-11-21T10:21:07;20.38;;;10.48;;
74995;SDS011;63545;51.690;5.202;2023-11-21T10:23:34;19.77;;;9.80;;
74995;SDS011;63545;51.690;5.202;2023-11-21T10:25:59;19.85;;;10.52;;
74995;SDS011;63545;51.690;5.202;2023-11-21T10:28:26;18.85;;;9.85;;
74995;SDS011;63545;51.690;5.202;2023-11-21T10:30:51;17.97;;;9.60;;
74995;SDS011;63545;51.690;5.202;2023-11-21T10:33:17;18.10;;;8.70;;
74995;SDS011;63545;51.690;5.202;2023-11-21T10:35:52;16.38;;;8.73;;
74995;SDS011;63545;51.690;5.202;2023-11-21T10:38:19;15.88;;;9.18;;
74995;SDS011;63545;51.690;5.202;2023-11-21T10:40:51;16.67;;;8.97;;
74995;SDS011;63545;51.690;5.202;2023-11-21T10:43:17;14.93;;;8.52;;
74995;SDS011;63545;51.690;5.202;2023-11-21T10:45:43;15.50;;;8.95;;
74995;SDS011;63545;51.690;5.202;2023-11-21T10:48:09;15.00;;;8.37;;
74995;SDS011;63545;51.690;5.202;2023-11-21T10:50:41;10.65;;;6.82;;
74995;SDS011;63545;51.690;5.202;2023-11-21T10:53:07;15.45;;;7.78;;
74995;SDS011;63545;51.690;5.202;2023-11-21T10:55:33;13.33;;;6.67;;
74995;SDS011;63545;51.690;5.202;2023-11-21T10:58:00;15.35;;;7.22;;
74995;SDS011;63545;51.690;5.202;2023-11-21T11:00:30;15.13;;;7.30;;
74995;SDS011;63545;51.690;5.202;2023-11-21T11:02:57;11.40;;;6.43;;
74995;SDS011;63545;51.690;5.202;2023-11-21T11:05:24;12.37;;;6.80;;
74995;SDS011;63545;51.690;5.202;2023-11-21T11:07:51;14.68;;;6.95;;
74995;SDS011;63545;51.690;5.202;2023-11-21T11:10:19;12.57;;;6.80;;
74995;SDS011;63545;51.690;5.202;2023-11-21T11:12:51;11.15;;;6.85;;
74995;SDS011;63545;51.690;5.202;2023-11-21T11:15:17;12.52;;;6.68;;
74995;SDS011;63545;51.690;5.202;2023-11-21T11:17:43;11.77;;;6.60;;
74995;SDS011;63545;51.690;5.202;2023-11-21T11:20:11;15.55;;;7.88;;
74995;SDS011;63545;51.690;5.202;2023-11-21T11:22:42;15.50;;;7.80;;
74995;SDS011;63545;51.690;5.202;2023-11-21T11:28:05;12.00;;;7.50;;
74995;SDS011;63545;51.690;5.202;2023-11-21T11:30:41;16.83;;;7.97;;
74995;SDS011;63545;51.690;5.202;2023-11-21T11:36:21;17.83;;;8.57;;
74995;SDS011;63545;51.690;5.202;2023-11-21T11:38:48;15.65;;;9.10;;
74995;SDS011;63545;51.690;5.202;2023-11-21T11:41:24;16.00;;;8.35;;
74995;SDS011;63545;51.690;5.202;2023-11-21T11:43:58;16.53;;;8.70;;
74995;SDS011;63545;51.690;5.202;2023-11-21T11:46:39;17.83;;;9.13;;
74995;SDS011;63545;51.690;5.202;2023-11-21T11:49:06;17.70;;;9.43;;
74995;SDS011;63545;51.690;5.202;2023-11-21T11:51:33;16.67;;;9.57;;
74995;SDS011;63545;51.690;5.202;2023-11-21T11:54:00;17.88;;;9.32;;
74995;SDS011;63545;51.690;5.202;2023-11-21T11:56:33;16.93;;;9.27;;
74995;SDS011;63545;51.690;5.202;2023-11-21T11:59:03;16.67;;;9.15;;
74995;SDS011;63545;51.690;5.202;2023-11-21T12:01:30;20.23;;;10.55;;
74995;SDS011;63545;51.690;5.202;2023-11-21T12:06:45;23.38;;;11.85;;
74995;SDS011;63545;51.690;5.202;2023-11-21T12:09:21;21.00;;;11.37;;
74995;SDS011;63545;51.690;5.202;2023-11-21T12:11:47;26.75;;;12.48;;
74995;SDS011;63545;51.690;5.202;2023-11-21T12:14:13;24.92;;;12.95;;
74995;SDS011;63545;51.690;5.202;2023-11-21T12:16:39;21.85;;;11.65;;
74995;SDS011;63545;51.690;5.202;2023-11-21T12:19:05;21.27;;;10.73;;
74995;SDS011;63545;51.690;5.202;2023-11-21T12:21:30;19.98;;;10.30;;
74995;SDS011;63545;51.690;5.202;2023-11-21T12:23:57;19.80;;;9.93;;
74995;SDS011;63545;51.690;5.202;2023-11-21T12:26:23;19.67;;;9.57;;
74995;SDS011;63545;51.690;5.202;2023-11-21T12:28:52;18.23;;;9.07;;
74995;SDS011;63545;51.690;5.202;2023-11-21T12:31:21;18.70;;;8.30;;
74995;SDS011;63545;51.690;5.202;2023-11-21T12:33:47;14.25;;;6.93;;
74995;SDS011;63545;51.690;5.202;2023-11-21T12:36:12;15.33;;;7.67;;
74995;SDS011;63545;51.690;5.202;2023-11-21T12:38:38;15.70;;;8.05;;
74995;SDS011;63545;51.690;5.202;2023-11-21T12:41:03;16.03;;;8.07;;
74995;SDS011;63545;51.690;5.202;2023-11-21T12:43:29;19.67;;;9.30;;
74995;SDS011;63545;51.690;5.202;2023-11-21T12:46:07;19.35;;;8.73;;
74995;SDS011;63545;51.690;5.202;2023-11-21T12:48:38;19.02;;;10.15;;
74995;SDS011;63545;51.690;5.202;2023-11-21T12:51:11;21.40;;;9.70;;
74995;SDS011;63545;51.690;5.202;2023-11-21T12:53:39;21.50;;;10.33;;
74995;SDS011;63545;51.690;5.202;2023-11-21T12:56:07;23.52;;;11.43;;
74995;SDS011;63545;51.690;5.202;2023-11-21T12:58:36;22.67;;;11.35;;
74995;SDS011;63545;51.690;5.202;2023-11-21T13:01:04;20.43;;;10.90;;
74995;SDS011;63545;51.690;5.202;2023-11-21T13:03:29;26.58;;;11.90;;
74995;SDS011;63545;51.690;5.202;2023-11-21T13:05:55;24.33;;;11.60;;
74995;SDS011;63545;51.690;5.202;2023-11-21T13:08:24;22.80;;;10.90;;
74995;SDS011;63545;51.690;5.202;2023-11-21T13:10:51;23.65;;;11.32;;
74995;SDS011;63545;51.690;5.202;2023-11-21T13:13:21;21.73;;;10.23;;
74995;SDS011;63545;51.690;5.202;2023-11-21T13:15:49;21.30;;;10.00;;
74995;SDS011;63545;51.690;5.202;2023-11-21T13:18:15;21.83;;;10.70;;
74995;SDS011;63545;51.690;5.202;2023-11-21T13:20:41;25.25;;;10.65;;
74995;SDS011;63545;51.690;5.202;2023-11-21T13:23:12;20.92;;;9.85;;
74995;SDS011;63545;51.690;5.202;2023-11-21T13:25:38;21.97;;;10.27;;
74995;SDS011;63545;51.690;5.202;2023-11-21T13:28:06;22.45;;;10.35;;
74995;SDS011;63545;51.690;5.202;2023-11-21T13:30:31;23.03;;;9.50;;
74995;SDS011;63545;51.690;5.202;2023-11-21T13:33:00;19.83;;;9.60;;
74995;SDS011;63545;51.690;5.202;2023-11-21T13:35:32;19.35;;;9.45;;
74995;SDS011;63545;51.690;5.202;2023-11-21T13:38:07;20.05;;;9.68;;
74995;SDS011;63545;51.690;5.202;2023-11-21T13:40:34;17.20;;;8.35;;
74995;SDS011;63545;51.690;5.202;2023-11-21T13:43:07;17.27;;;8.32;;
74995;SDS011;63545;51.690;5.202;2023-11-21T13:45:35;16.30;;;7.60;;
74995;SDS011;63545;51.690;5.202;2023-11-21T13:48:01;12.00;;;6.68;;
74995;SDS011;63545;51.690;5.202;2023-11-21T13:50:27;13.65;;;6.38;;
74995;SDS011;63545;51.690;5.202;2023-11-21T13:52:59;12.73;;;6.70;;
74995;SDS011;63545;51.690;5.202;2023-11-21T13:55:47;14.00;;;6.70;;
74995;SDS011;63545;51.690;5.202;2023-11-21T13:58:19;12.52;;;5.82;;
74995;SDS011;63545;51.690;5.202;2023-11-21T14:00:48;13.75;;;6.30;;
74995;SDS011;63545;51.690;5.202;2023-11-21T14:03:21;11.00;;;6.57;;
74995;SDS011;63545;51.690;5.202;2023-11-21T14:05:47;12.60;;;6.67;;
74995;SDS011;63545;51.690;5.202;2023-11-21T14:08:19;12.75;;;6.32;;
74995;SDS011;63545;51.690;5.202;2023-11-21T14:10:46;15.98;;;6.63;;
74995;SDS011;63545;51.690;5.202;2023-11-21T14:13:15;11.05;;;6.22;;
74995;SDS011;63545;51.690;5.202;2023-11-21T14:15:44;13.95;;;6.47;;
74995;SDS011;63545;51.690;5.202;2023-11-21T14:18:11;15.23;;;6.93;;
74995;SDS011;63545;51.690;5.202;2023-11-21T14:20:39;13.27;;;7.07;;
74995;SDS011;63545;51.690;5.202;2023-11-21T14:23:06;20.58;;;9.63;;
74995;SDS011;63545;51.690;5.202;2023-11-21T14:25:32;23.08;;;10.55;;
74995;SDS011;63545;51.690;5.202;2023-11-21T14:27:58;24.60;;;11.40;;
74995;SDS011;63545;51.690;5.202;2023-11-21T14:30:24;24.25;;;11.77;;